createdAt,value
2023-01-15T00:02:21.522Z,2.03
2023-01-15T00:04:52.773Z,2.43
2023-01-15T00:07:21.284Z,2.73
2023-01-15T00:09:50.854Z,3.53
2023-01-15T00:12:19.303Z,2.00
2023-01-15T00:14:48.414Z,2.60
2023-01-15T00:17:17.015Z,2.50
2023-01-15T00:19:45.440Z,2.90
2023-01-15T00:22:13.840Z,2.53
2023-01-15T00:25:00.861Z,4.10
2023-01-15T00:27:41.313Z,2.17
2023-01-15T00:30:13.279Z,2.73
2023-01-15T00:32:45.973Z,1.90
2023-01-15T00:35:17.303Z,2.33
2023-01-15T00:37:46.208Z,2.53
2023-01-15T00:40:16.834Z,2.70
2023-01-15T00:42:46.507Z,2.03
2023-01-15T00:45:23.674Z,2.70
2023-01-15T00:47:52.726Z,2.30
2023-01-15T00:50:21.289Z,2.87
2023-01-15T00:52:49.717Z,2.10
2023-01-15T00:55:18.251Z,2.50
2023-01-15T00:57:46.921Z,2.77
2023-01-15T01:00:15.631Z,2.47
2023-01-15T01:02:44.104Z,2.77
2023-01-15T01:05:12.565Z,2.60
2023-01-15T01:07:40.963Z,3.10
2023-01-15T01:10:10.267Z,2.33
2023-01-15T01:12:38.916Z,1.90
2023-01-15T01:15:07.951Z,2.77
2023-01-15T01:17:37.954Z,2.93
2023-01-15T01:20:06.853Z,2.30
2023-01-15T01:22:35.305Z,1.90
2023-01-15T01:25:03.944Z,2.43
2023-01-15T01:27:32.351Z,2.53
2023-01-15T01:30:01.386Z,2.20
2023-01-15T01:32:29.955Z,2.40
2023-01-15T01:34:58.451Z,3.57
2023-01-15T01:37:26.851Z,2.63
2023-01-15T01:39:56.124Z,2.53
2023-01-15T01:42:26.726Z,2.47
2023-01-15T01:45:15.533Z,2.50
2023-01-15T01:47:43.990Z,2.20
2023-01-15T01:50:14.686Z,2.33
2023-01-15T01:52:54.946Z,2.10
2023-01-15T01:55:26.386Z,2.10
2023-01-15T01:57:58.588Z,2.10
2023-01-15T02:00:27.671Z,2.77
2023-01-15T02:02:56.268Z,2.20
2023-01-15T02:05:33.060Z,3.53
2023-01-15T02:08:02.370Z,3.07
2023-01-15T02:10:30.859Z,2.43
2023-01-15T02:13:34.434Z,2.40
2023-01-15T02:16:16.632Z,2.60
2023-01-15T02:19:09.971Z,2.60
2023-01-15T02:21:57.295Z,3.10
2023-01-15T02:24:45.334Z,3.70
2023-01-15T02:27:22.538Z,3.97
2023-01-15T02:30:04.910Z,7.07
2023-01-15T02:32:45.202Z,4.37
2023-01-15T02:35:24.624Z,3.13
2023-01-15T02:37:56.374Z,3.60
2023-01-15T02:40:27.663Z,2.97
2023-01-15T02:42:57.763Z,3.50
2023-01-15T02:45:34.034Z,3.17
2023-01-15T02:48:15.482Z,9.50
2023-01-15T02:51:06.265Z,2.93
2023-01-15T02:53:37.059Z,2.43
2023-01-15T02:56:10.644Z,2.50
2023-01-15T02:58:41.608Z,2.00
2023-01-15T03:01:20.935Z,2.37
2023-01-15T03:04:02.185Z,2.00
2023-01-15T03:06:57.469Z,3.87
2023-01-15T03:09:26.451Z,2.47
2023-01-15T03:12:09.416Z,2.73
2023-01-15T03:15:11.765Z,2.30
2023-01-15T03:17:55.151Z,2.37
2023-01-15T03:20:29.880Z,3.13
2023-01-15T03:23:04.731Z,2.57
2023-01-15T03:25:39.567Z,2.67
2023-01-15T03:28:11.094Z,2.00
2023-01-15T03:30:39.646Z,2.80
2023-01-15T03:33:12.476Z,2.97
2023-01-15T03:35:59.859Z,3.47
2023-01-15T03:38:36.968Z,2.93
2023-01-15T03:41:17.436Z,3.20
2023-01-15T03:44:19.513Z,2.40
2023-01-15T03:47:06.287Z,2.90
2023-01-15T03:49:42.779Z,3.63
2023-01-15T03:52:36.958Z,6.37
2023-01-15T03:55:17.022Z,3.23
2023-01-15T03:57:50.157Z,4.03
2023-01-15T04:00:29.544Z,3.10
2023-01-15T04:02:59.739Z,3.13
2023-01-15T04:05:30.233Z,3.03
2023-01-15T04:08:00.727Z,2.80
2023-01-15T04:10:29.428Z,3.30
2023-01-15T04:12:57.877Z,3.30
2023-01-15T04:15:26.583Z,2.80
2023-01-15T04:17:55.012Z,4.03
2023-01-15T04:20:23.946Z,5.07
2023-01-15T04:22:52.547Z,3.90
2023-01-15T04:25:20.930Z,2.77
2023-01-15T04:27:49.314Z,3.60
2023-01-15T04:30:18.328Z,4.77
2023-01-15T04:32:50.600Z,3.63
2023-01-15T04:35:20.240Z,2.87
2023-01-15T04:37:48.767Z,3.10
2023-01-15T04:40:35.450Z,21.77
2023-01-15T04:43:22.031Z,14.13
2023-01-15T04:45:50.519Z,6.90
2023-01-15T04:48:19.000Z,4.83
2023-01-15T04:50:47.436Z,3.57
2023-01-15T04:53:16.278Z,3.57
2023-01-15T04:55:44.728Z,3.20
2023-01-15T04:58:13.150Z,4.00
2023-01-15T05:00:42.557Z,4.93
2023-01-15T05:03:10.961Z,4.07
2023-01-15T05:05:39.802Z,3.00
2023-01-15T05:08:08.271Z,5.00
2023-01-15T05:10:36.664Z,6.70
2023-01-15T05:13:05.125Z,9.20
2023-01-15T05:15:33.594Z,8.83
2023-01-15T05:18:02.013Z,10.07
2023-01-15T05:20:30.606Z,8.97
2023-01-15T05:22:59.076Z,5.10
2023-01-15T05:25:28.104Z,5.53
2023-01-15T05:27:56.543Z,5.97
2023-01-15T05:30:28.156Z,5.37
2023-01-15T05:32:56.978Z,6.93
2023-01-15T05:35:25.384Z,5.87
2023-01-15T05:37:53.842Z,4.20
2023-01-15T05:40:22.267Z,3.40
2023-01-15T05:42:50.704Z,8.33
2023-01-15T05:45:19.309Z,7.93
2023-01-15T05:47:47.759Z,5.60
2023-01-15T05:50:16.303Z,9.57
2023-01-15T05:52:44.824Z,6.63
2023-01-15T05:55:13.236Z,5.10
2023-01-15T05:57:41.650Z,7.30
2023-01-15T06:00:10.899Z,4.67
2023-01-15T06:02:39.757Z,5.50
2023-01-15T06:05:08.836Z,5.13
2023-01-15T06:07:37.332Z,3.80
2023-01-15T06:10:06.127Z,4.73
2023-01-15T06:12:34.612Z,3.60
2023-01-15T06:15:03.107Z,2.77
2023-01-15T06:17:31.508Z,3.20
2023-01-15T06:20:00.141Z,3.93
2023-01-15T06:22:28.552Z,3.63
2023-01-15T06:24:56.985Z,4.13
2023-01-15T06:27:25.443Z,3.27
2023-01-15T06:29:54.668Z,3.37
2023-01-15T06:32:23.079Z,3.40
2023-01-15T06:34:51.789Z,4.53
2023-01-15T06:37:20.410Z,4.40
2023-01-15T06:39:48.828Z,4.03
2023-01-15T06:42:40.127Z,4.10
2023-01-15T06:45:29.497Z,3.80
2023-01-15T06:47:58.909Z,6.33
2023-01-15T06:50:27.419Z,4.57
2023-01-15T06:52:55.830Z,3.67
2023-01-15T06:55:25.147Z,5.80
2023-01-15T06:57:53.559Z,3.70
2023-01-15T07:00:22.409Z,3.83
2023-01-15T07:02:51.686Z,3.80
2023-01-15T07:05:20.080Z,4.90
2023-01-15T07:07:49.133Z,4.60
2023-01-15T07:10:17.967Z,5.80
2023-01-15T07:12:46.377Z,3.27
2023-01-15T07:15:15.673Z,3.83
2023-01-15T07:17:44.997Z,4.10
2023-01-15T07:20:14.034Z,3.90
2023-01-15T07:22:42.441Z,3.13
2023-01-15T07:25:11.443Z,3.27
2023-01-15T07:27:39.846Z,4.43
2023-01-15T07:30:09.544Z,3.80
2023-01-15T07:32:38.754Z,3.10
2023-01-15T07:35:07.563Z,3.80
2023-01-15T07:37:35.951Z,4.67
2023-01-15T07:40:04.686Z,6.23
2023-01-15T07:42:51.255Z,6.33
2023-01-15T07:45:38.745Z,5.90
2023-01-15T07:48:30.306Z,4.07
2023-01-15T07:50:58.775Z,7.13
2023-01-15T07:53:27.181Z,4.97
2023-01-15T07:55:56.048Z,3.70
2023-01-15T07:58:25.000Z,3.47
2023-01-15T08:00:53.978Z,3.60
2023-01-15T08:03:22.390Z,4.10
2023-01-15T08:05:50.813Z,4.50
2023-01-15T08:08:20.200Z,3.10
2023-01-15T08:11:07.096Z,9.90
2023-01-15T08:13:53.713Z,5.07
2023-01-15T08:16:22.218Z,5.27
2023-01-15T08:18:50.683Z,3.90
2023-01-15T08:21:20.114Z,3.90
2023-01-15T08:23:48.638Z,5.03
2023-01-15T08:26:17.057Z,10.67
2023-01-15T08:28:45.492Z,13.43
2023-01-15T08:31:13.946Z,11.30
2023-01-15T08:33:42.479Z,14.73
2023-01-15T08:36:11.242Z,17.93
2023-01-15T08:38:39.731Z,10.83
2023-01-15T08:41:08.219Z,6.67
2023-01-15T08:43:36.852Z,7.27
2023-01-15T08:46:06.981Z,9.10
2023-01-15T08:48:35.733Z,19.63
2023-01-15T08:51:09.216Z,15.70
2023-01-15T08:53:39.137Z,12.33
2023-01-15T08:56:17.719Z,15.43
2023-01-15T08:58:48.608Z,13.87
2023-01-15T09:01:17.151Z,6.63
2023-01-15T09:03:45.755Z,7.93
2023-01-15T09:06:14.473Z,10.27
2023-01-15T09:08:42.975Z,6.37
2023-01-15T09:11:13.786Z,3.90
2023-01-15T09:13:44.329Z,3.27
2023-01-15T09:16:12.983Z,2.50
2023-01-15T09:18:42.856Z,1.80
2023-01-15T09:21:12.043Z,2.70
2023-01-15T09:23:40.571Z,2.33
2023-01-15T09:26:09.689Z,2.13
2023-01-15T09:28:38.514Z,1.40
2023-01-15T09:31:06.940Z,1.40
2023-01-15T09:33:35.388Z,1.50
2023-01-15T09:36:03.869Z,1.50
2023-01-15T09:38:35.327Z,1.50
2023-01-15T09:41:32.276Z,1.67
2023-01-15T09:44:09.931Z,1.40
2023-01-15T09:47:12.978Z,2.80
2023-01-15T09:50:01.667Z,3.27
2023-01-15T09:52:51.908Z,1.60
2023-01-15T09:55:33.311Z,2.00
2023-01-15T09:58:05.919Z,1.40
2023-01-15T10:00:44.579Z,2.20
2023-01-15T10:03:25.440Z,1.50
2023-01-15T10:06:12.880Z,1.50
2023-01-15T10:08:49.817Z,1.50
2023-01-15T10:11:22.953Z,1.40
2023-01-15T10:14:07.328Z,1.70
2023-01-15T10:16:35.822Z,1.40
2023-01-15T10:19:05.155Z,1.53
2023-01-15T10:21:52.142Z,2.70
2023-01-15T10:24:27.854Z,1.40
2023-01-15T10:26:58.802Z,2.73
2023-01-15T10:29:36.042Z,1.93
2023-01-15T10:32:19.923Z,1.50
2023-01-15T10:35:01.294Z,1.70
2023-01-15T10:37:42.890Z,2.37
2023-01-15T10:40:20.388Z,2.53
2023-01-15T10:43:14.615Z,2.03
2023-01-15T10:45:48.397Z,2.17
2023-01-15T10:48:42.532Z,1.70
2023-01-15T10:51:35.472Z,1.90
2023-01-15T10:54:24.136Z,1.40
2023-01-15T10:57:13.494Z,1.87
2023-01-15T11:00:02.549Z,1.83
2023-01-15T11:03:08.883Z,1.50
2023-01-15T11:05:39.579Z,1.60
2023-01-15T11:08:58.379Z,4.23
2023-01-15T11:11:22.041Z,1.67
2023-01-15T11:14:15.890Z,1.40
2023-01-15T11:17:03.573Z,1.93
2023-01-15T11:19:40.986Z,2.37
2023-01-15T11:22:12.831Z,1.60
2023-01-15T11:25:02.139Z,1.60
2023-01-15T11:27:34.811Z,1.70
2023-01-15T11:30:05.417Z,2.10
2023-01-15T11:32:39.555Z,2.47
2023-01-15T11:35:18.891Z,1.87
2023-01-15T11:37:47.362Z,1.57
2023-01-15T11:40:20.259Z,1.73
2023-01-15T11:43:08.199Z,2.33
2023-01-15T11:46:05.628Z,1.50
2023-01-15T11:49:04.295Z,1.70
2023-01-15T11:51:43.069Z,2.37
2023-01-15T11:54:16.127Z,1.40
2023-01-15T11:56:47.548Z,1.40
2023-01-15T11:59:20.731Z,1.50
2023-01-15T12:02:05.323Z,1.70
2023-01-15T12:04:45.633Z,2.60
2023-01-15T12:07:15.419Z,1.93
2023-01-15T12:10:11.110Z,1.77
2023-01-15T12:13:24.531Z,1.60
2023-01-15T12:16:05.178Z,1.60
2023-01-15T12:18:48.915Z,1.70
2023-01-15T12:21:30.136Z,1.50
2023-01-15T12:24:21.547Z,1.50
2023-01-15T12:27:10.480Z,1.60
2023-01-15T12:29:47.219Z,1.50
2023-01-15T12:32:20.924Z,1.80
2023-01-15T12:35:03.301Z,1.63
2023-01-15T12:37:39.827Z,1.70
2023-01-15T12:40:21.208Z,2.50
2023-01-15T12:43:12.258Z,2.30
2023-01-15T12:45:48.376Z,1.93
2023-01-15T12:48:28.168Z,1.60
2023-01-15T12:51:00.237Z,1.97
2023-01-15T12:53:53.160Z,2.30
2023-01-15T12:56:24.370Z,3.53
2023-01-15T12:59:06.034Z,1.50
2023-01-15T13:01:43.663Z,2.60
2023-01-15T13:04:12.089Z,1.50
2023-01-15T13:06:45.975Z,1.43
2023-01-15T13:09:40.064Z,1.63
2023-01-15T13:12:18.804Z,1.70
2023-01-15T13:14:47.461Z,1.40
2023-01-15T13:17:53.096Z,1.50
2023-01-15T13:20:37.275Z,1.60
2023-01-15T13:23:10.570Z,1.60
2023-01-15T13:26:12.498Z,1.70
2023-01-15T13:28:59.639Z,1.97
2023-01-15T13:31:37.156Z,1.90
2023-01-15T13:34:18.165Z,1.60
2023-01-15T13:36:50.143Z,1.57
2023-01-15T13:39:22.743Z,1.40
2023-01-15T13:42:12.549Z,1.67
2023-01-15T13:44:48.670Z,1.60
2023-01-15T13:47:29.478Z,2.17
2023-01-15T13:50:01.817Z,1.60
2023-01-15T13:52:34.210Z,2.23
2023-01-15T13:55:30.817Z,1.80
2023-01-15T13:57:59.323Z,1.53
2023-01-15T14:00:37.441Z,2.43
2023-01-15T14:03:29.871Z,1.60
2023-01-15T14:06:03.865Z,2.00
2023-01-15T14:08:44.781Z,2.00
2023-01-15T14:11:39.424Z,3.07
2023-01-15T14:14:32.226Z,3.30
2023-01-15T14:17:31.623Z,2.40
2023-01-15T14:20:34.771Z,2.20
2023-01-15T14:23:24.868Z,2.63
2023-01-15T14:25:53.267Z,2.10
2023-01-15T14:28:30.997Z,2.73
2023-01-15T14:31:36.792Z,3.43
2023-01-15T14:34:16.059Z,2.80
2023-01-15T14:37:02.939Z,2.60
2023-01-15T14:39:52.004Z,2.10
2023-01-15T14:42:41.659Z,2.03
2023-01-15T14:45:34.610Z,1.70
2023-01-15T14:48:18.204Z,1.70
2023-01-15T14:50:48.407Z,1.60
2023-01-15T14:53:28.099Z,1.70
2023-01-15T14:56:19.247Z,1.87
2023-01-15T14:58:59.514Z,1.50
2023-01-15T15:01:50.440Z,2.00
2023-01-15T15:04:33.317Z,1.53
2023-01-15T15:07:15.633Z,2.10
2023-01-15T15:09:52.250Z,1.50
2023-01-15T15:12:30.857Z,1.70
2023-01-15T15:15:20.801Z,3.80
2023-01-15T15:17:58.160Z,1.57
2023-01-15T15:20:54.949Z,1.50
2023-01-15T15:23:49.821Z,1.50
2023-01-15T15:26:30.264Z,1.50
2023-01-15T15:29:04.686Z,1.43
2023-01-15T15:31:57.327Z,1.40
2023-01-15T15:34:41.411Z,1.50
2023-01-15T15:37:22.175Z,1.70
2023-01-15T15:39:59.165Z,1.50
2023-01-15T15:43:00.432Z,2.03
2023-01-15T15:45:49.716Z,2.33
2023-01-15T15:48:46.116Z,1.93
2023-01-15T15:51:36.577Z,2.63
2023-01-15T15:54:23.345Z,1.47
2023-01-15T15:56:54.551Z,1.50
2023-01-15T15:59:49.828Z,1.60
2023-01-15T16:02:42.188Z,1.87
2023-01-15T16:05:33.893Z,1.40
2023-01-15T16:08:21.463Z,1.70
2023-01-15T16:10:53.889Z,1.70
2023-01-15T16:13:33.819Z,2.83
2023-01-15T16:16:04.086Z,4.90
2023-01-15T16:18:46.077Z,1.50
2023-01-15T16:21:27.183Z,1.57
2023-01-15T16:23:59.806Z,1.53
2023-01-15T16:26:38.431Z,1.70
2023-01-15T16:29:16.782Z,1.50
2023-01-15T16:31:45.434Z,1.90
2023-01-15T16:34:19.540Z,1.60
2023-01-15T16:36:48.556Z,1.60
2023-01-15T16:39:24.706Z,1.80
2023-01-15T16:41:58.400Z,2.40
2023-01-15T16:44:40.999Z,2.33
2023-01-15T16:47:21.915Z,1.60
2023-01-15T16:49:50.440Z,2.37
2023-01-15T16:52:53.468Z,1.60
2023-01-15T16:55:42.485Z,1.50
2023-01-15T16:58:16.759Z,1.50
2023-01-15T17:00:51.883Z,1.60
2023-01-15T17:03:26.302Z,2.50
2023-01-15T17:06:01.319Z,1.50
2023-01-15T17:08:40.856Z,1.50
2023-01-15T17:11:25.239Z,1.50
2023-01-15T17:14:08.024Z,1.90
2023-01-15T17:16:36.607Z,2.00
2023-01-15T17:19:08.688Z,1.80
2023-01-15T17:21:39.632Z,2.47
2023-01-15T17:24:09.954Z,1.70
2023-01-15T17:26:38.466Z,1.70
2023-01-15T17:29:06.911Z,1.63
2023-01-15T17:31:37.040Z,1.80
2023-01-15T17:34:06.313Z,1.60
2023-01-15T17:36:35.714Z,1.50
2023-01-15T17:39:04.301Z,1.80
2023-01-15T17:41:32.726Z,1.60
2023-01-15T17:44:01.460Z,1.60
2023-01-15T17:46:29.940Z,2.90
2023-01-15T17:48:58.345Z,1.60
2023-01-15T17:51:27.253Z,1.70
2023-01-15T17:53:55.776Z,1.50
2023-01-15T17:56:42.419Z,1.60
2023-01-15T17:59:31.088Z,1.80
2023-01-15T18:02:34.737Z,1.70
2023-01-15T18:05:21.631Z,1.70
2023-01-15T18:07:50.162Z,1.50
2023-01-15T18:10:21.832Z,1.90
2023-01-15T18:12:50.688Z,1.50
2023-01-15T18:15:20.402Z,1.57
2023-01-15T18:17:48.907Z,1.70
2023-01-15T18:20:17.580Z,1.60
2023-01-15T18:22:46.721Z,1.60
2023-01-15T18:25:15.147Z,3.30
2023-01-15T18:27:44.232Z,1.50
2023-01-15T18:30:14.615Z,1.70
2023-01-15T18:32:44.697Z,1.63
2023-01-15T18:35:15.111Z,1.70
2023-01-15T18:37:44.367Z,1.50
2023-01-15T18:40:14.055Z,2.13
2023-01-15T18:43:01.485Z,1.63
2023-01-15T18:45:48.650Z,1.70
2023-01-15T18:48:17.055Z,1.90
2023-01-15T18:50:46.064Z,1.50
2023-01-15T18:53:14.629Z,1.83
2023-01-15T18:55:44.823Z,1.60
2023-01-15T18:58:13.311Z,1.80
2023-01-15T19:00:41.754Z,1.60
2023-01-15T19:03:10.260Z,2.27
2023-01-15T19:05:38.691Z,1.70
2023-01-15T19:08:07.444Z,1.60
2023-01-15T19:10:35.849Z,1.60
2023-01-15T19:13:06.356Z,1.60
2023-01-15T19:15:53.395Z,1.70
2023-01-15T19:18:40.112Z,1.53
2023-01-15T19:21:13.055Z,1.60
2023-01-15T19:23:41.616Z,1.60
2023-01-15T19:26:10.101Z,1.60
2023-01-15T19:28:38.591Z,1.60
2023-01-15T19:31:29.105Z,4.23
2023-01-15T19:34:31.022Z,1.77
2023-01-15T19:36:48.328Z,1.80
2023-01-15T19:39:17.789Z,1.60
2023-01-15T19:42:04.428Z,2.00
2023-01-15T19:44:51.508Z,2.10
2023-01-15T19:47:50.883Z,1.50
2023-01-15T19:50:22.552Z,1.70
2023-01-15T19:52:55.428Z,1.87
2023-01-15T19:55:25.773Z,2.50
2023-01-15T19:58:02.398Z,1.60
2023-01-15T20:00:33.800Z,1.70
2023-01-15T20:03:04.166Z,2.00
2023-01-15T20:05:33.906Z,1.60
2023-01-15T20:08:02.328Z,10.13
2023-01-15T20:10:32.618Z,2.00
2023-01-15T20:13:19.403Z,1.60
2023-01-15T20:15:48.088Z,2.07
2023-01-15T20:18:18.062Z,1.73
2023-01-15T20:20:46.629Z,1.73
2023-01-15T20:23:15.420Z,1.73
2023-01-15T20:25:47.348Z,1.70
2023-01-15T20:28:15.747Z,1.97
2023-01-15T20:30:44.206Z,2.00
2023-01-15T20:33:13.633Z,1.80
2023-01-15T20:35:42.106Z,1.80
2023-01-15T20:38:11.087Z,2.20
2023-01-15T20:40:39.550Z,1.70
2023-01-15T20:43:26.180Z,1.70
2023-01-15T20:45:55.395Z,2.00
2023-01-15T20:48:42.082Z,1.50
2023-01-15T20:51:14.389Z,2.40
2023-01-15T20:53:43.110Z,1.70
2023-01-15T20:56:17.491Z,1.90
2023-01-15T20:58:46.165Z,1.60
2023-01-15T21:01:15.669Z,1.70
2023-01-15T21:03:44.213Z,2.10
2023-01-15T21:06:12.617Z,1.70
2023-01-15T21:08:42.343Z,1.50
2023-01-15T21:11:10.830Z,1.70
2023-01-15T21:13:45.450Z,1.60
2023-01-15T21:16:15.692Z,1.83
2023-01-15T21:18:46.045Z,2.33
2023-01-15T21:21:17.040Z,2.00
2023-01-15T21:23:48.770Z,1.80
2023-01-15T21:26:17.745Z,2.10
2023-01-15T21:28:46.258Z,2.27
2023-01-15T21:31:16.310Z,1.70
2023-01-15T21:33:44.843Z,1.77
2023-01-15T21:36:15.946Z,2.13
2023-01-15T21:38:44.515Z,1.80
2023-01-15T21:41:14.962Z,2.07
2023-01-15T21:44:02.613Z,1.90
2023-01-15T21:46:31.931Z,1.60
2023-01-15T21:49:00.840Z,1.90
2023-01-15T21:51:29.465Z,1.80
2023-01-15T21:54:00.221Z,2.77
2023-01-15T21:56:29.196Z,1.80
2023-01-15T21:58:58.003Z,1.80
2023-01-15T22:01:26.834Z,1.80
2023-01-15T22:03:55.365Z,2.17
2023-01-15T22:06:23.946Z,1.80
2023-01-15T22:08:56.061Z,1.90
2023-01-15T22:11:25.092Z,1.73
2023-01-15T22:13:54.095Z,3.03
2023-01-15T22:16:22.637Z,1.60
2023-01-15T22:18:51.474Z,1.97
2023-01-15T22:21:19.865Z,2.00
2023-01-15T22:23:49.213Z,1.70
2023-01-15T22:26:22.348Z,1.90
2023-01-15T22:28:52.537Z,1.70
2023-01-15T22:31:21.012Z,2.00
2023-01-15T22:33:49.571Z,2.40
2023-01-15T22:36:18.573Z,2.27
2023-01-15T22:38:47.923Z,1.70
2023-01-15T22:41:36.619Z,1.87
2023-01-15T22:44:06.253Z,2.47
2023-01-15T22:46:35.862Z,2.50
2023-01-15T22:49:05.213Z,2.70
2023-01-15T22:51:33.659Z,2.93
2023-01-15T22:54:03.627Z,1.70
2023-01-15T22:56:32.073Z,1.80
2023-01-15T22:59:00.942Z,2.60
2023-01-15T23:01:29.472Z,1.80
2023-01-15T23:03:58.082Z,2.43
2023-01-15T23:06:28.342Z,2.10
2023-01-15T23:08:58.383Z,1.87
2023-01-15T23:11:27.851Z,2.30
2023-01-15T23:13:57.702Z,2.80
2023-01-15T23:16:26.267Z,2.20
2023-01-15T23:18:55.020Z,3.00
2023-01-15T23:21:26.377Z,2.10
2023-01-15T23:23:56.704Z,2.10
2023-01-15T23:26:26.490Z,2.10
2023-01-15T23:28:55.690Z,1.90
2023-01-15T23:31:25.433Z,1.97
2023-01-15T23:33:54.259Z,2.30
2023-01-15T23:36:23.323Z,2.70
2023-01-15T23:38:52.398Z,2.20
2023-01-15T23:41:43.695Z,2.57
2023-01-15T23:44:38.216Z,2.20
2023-01-15T23:47:09.199Z,4.00
2023-01-15T23:49:37.920Z,2.53
2023-01-15T23:52:06.840Z,2.90
2023-01-15T23:54:35.380Z,3.20
2023-01-15T23:57:04.689Z,2.60
2023-01-15T23:59:33.153Z,2.10
